createdAt,value
2023-03-30T00:01:04.476Z,4.13
2023-03-30T00:03:33.637Z,4.33
2023-03-30T00:06:04.980Z,3.07
2023-03-30T00:11:05.752Z,4.20
2023-03-30T00:13:35.641Z,4.00
2023-03-30T00:16:06.342Z,3.77
2023-03-30T00:18:34.601Z,3.30
2023-03-30T00:21:03.924Z,3.40
2023-03-30T00:23:33.170Z,3.50
2023-03-30T00:26:01.846Z,3.70
2023-03-30T00:28:34.716Z,2.80
2023-03-30T00:31:03.832Z,2.92
2023-03-30T00:33:44.609Z,3.40
2023-03-30T00:36:05.988Z,3.85
2023-03-30T00:38:34.611Z,2.93
2023-03-30T00:41:03.273Z,2.80
2023-03-30T00:43:33.438Z,2.80
2023-03-30T00:46:02.400Z,3.20
2023-03-30T00:48:32.462Z,3.27
2023-03-30T00:51:02.778Z,3.70
2023-03-30T00:53:32.659Z,3.90
2023-03-30T00:56:02.652Z,2.83
2023-03-30T00:58:31.977Z,2.77
2023-03-30T01:01:02.614Z,2.63
2023-03-30T01:03:32.889Z,2.77
2023-03-30T01:06:03.196Z,2.33
2023-03-30T01:08:35.416Z,3.25
2023-03-30T01:11:06.484Z,4.23
2023-03-30T01:13:36.203Z,4.20
2023-03-30T01:16:19.057Z,3.10
2023-03-30T01:18:58.292Z,3.42
2023-03-30T01:21:40.689Z,3.00
2023-03-30T01:24:28.835Z,2.90
2023-03-30T01:27:01.595Z,3.23
2023-03-30T01:29:49.747Z,3.27
2023-03-30T01:32:19.799Z,4.33
2023-03-30T01:34:52.768Z,3.03
2023-03-30T01:37:39.870Z,3.22
2023-03-30T01:40:13.112Z,3.50
2023-03-30T01:42:59.504Z,4.27
2023-03-30T01:45:32.545Z,3.30
2023-03-30T01:48:14.520Z,4.40
2023-03-30T01:50:44.728Z,3.47
2023-03-30T01:53:17.526Z,3.77
2023-03-30T01:55:48.076Z,3.53
2023-03-30T01:58:21.679Z,3.30
2023-03-30T02:00:51.144Z,3.77
2023-03-30T02:03:21.974Z,3.80
2023-03-30T02:08:19.590Z,4.12
2023-03-30T02:10:48.666Z,3.47
2023-03-30T02:13:18.482Z,3.83
2023-03-30T02:15:49.928Z,3.47
2023-03-30T02:18:20.089Z,3.87
2023-03-30T02:20:49.311Z,3.80
2023-03-30T02:23:22.437Z,4.03
2023-03-30T02:25:51.292Z,3.67
2023-03-30T02:28:19.921Z,4.50
2023-03-30T02:30:48.774Z,4.17
2023-03-30T02:33:20.349Z,3.47
2023-03-30T02:35:51.586Z,2.77
2023-03-30T02:38:28.146Z,2.83
2023-03-30T02:41:01.362Z,2.33
2023-03-30T02:43:40.961Z,2.50
2023-03-30T02:46:15.096Z,2.77
2023-03-30T02:48:45.691Z,2.53
2023-03-30T02:51:15.593Z,3.03
2023-03-30T02:54:04.508Z,3.20
2023-03-30T02:56:37.696Z,2.30
2023-03-30T02:59:07.489Z,2.37
2023-03-30T03:01:38.316Z,2.70
2023-03-30T03:04:10.080Z,2.67
2023-03-30T03:06:50.796Z,2.73
2023-03-30T03:09:20.508Z,2.37
2023-03-30T03:11:49.080Z,3.07
2023-03-30T03:14:17.692Z,3.00
2023-03-30T03:16:46.319Z,3.30
2023-03-30T03:19:16.574Z,4.07
2023-03-30T03:21:46.861Z,3.50
2023-03-30T03:24:17.268Z,3.60
2023-03-30T03:27:03.512Z,3.40
2023-03-30T03:29:33.514Z,3.53
2023-03-30T03:32:02.382Z,3.05
2023-03-30T03:34:32.365Z,2.80
2023-03-30T03:37:05.005Z,2.93
2023-03-30T03:39:35.558Z,2.37
2023-03-30T03:42:08.315Z,3.17
2023-03-30T03:44:40.391Z,2.50
2023-03-30T03:47:08.837Z,2.60
2023-03-30T03:49:37.631Z,3.30
2023-03-30T03:52:06.721Z,2.63
2023-03-30T03:54:35.289Z,3.57
2023-03-30T03:57:05.602Z,3.30
2023-03-30T03:59:34.143Z,2.27
2023-03-30T04:02:02.669Z,2.80
2023-03-30T04:04:31.565Z,2.67
2023-03-30T04:07:01.175Z,2.85
2023-03-30T04:09:29.715Z,2.70
2023-03-30T04:12:08.789Z,2.63
2023-03-30T04:14:38.656Z,2.90
2023-03-30T04:17:22.565Z,2.60
2023-03-30T04:20:03.362Z,3.43
2023-03-30T04:22:41.381Z,3.90
2023-03-30T04:25:28.945Z,4.17
2023-03-30T04:28:05.279Z,3.73
2023-03-30T04:30:45.481Z,4.10
2023-03-30T04:33:36.716Z,3.77
2023-03-30T04:36:23.208Z,4.40
2023-03-30T04:38:59.744Z,4.37
2023-03-30T04:41:35.797Z,5.15
2023-03-30T04:44:15.157Z,4.80
2023-03-30T04:47:00.698Z,4.77
2023-03-30T04:49:42.922Z,4.87
2023-03-30T04:52:21.975Z,5.63
2023-03-30T04:54:55.280Z,7.47
2023-03-30T04:57:41.850Z,6.00
2023-03-30T05:00:16.059Z,5.42
2023-03-30T05:02:52.572Z,5.80
2023-03-30T05:05:23.152Z,5.17
2023-03-30T05:07:54.010Z,5.63
2023-03-30T05:10:24.288Z,5.95
2023-03-30T05:12:57.567Z,5.30
2023-03-30T05:15:37.084Z,5.13
2023-03-30T05:18:13.578Z,5.00
2023-03-30T05:21:00.510Z,6.10
2023-03-30T05:23:30.506Z,4.17
2023-03-30T05:26:00.521Z,5.43
2023-03-30T05:28:47.673Z,4.07
2023-03-30T05:31:21.454Z,4.17
2023-03-30T05:33:54.505Z,4.67
2023-03-30T05:36:40.839Z,5.27
2023-03-30T05:39:10.747Z,4.60
2023-03-30T05:41:53.463Z,5.42
2023-03-30T05:44:23.580Z,5.00
2023-03-30T05:47:09.645Z,4.53
2023-03-30T05:49:56.633Z,3.60
2023-03-30T05:52:26.841Z,3.80
2023-03-30T05:54:56.830Z,3.93
2023-03-30T05:57:30.534Z,3.27
2023-03-30T06:00:13.687Z,3.53
2023-03-30T06:02:44.800Z,3.57
2023-03-30T06:05:15.137Z,3.37
2023-03-30T06:07:45.636Z,3.93
2023-03-30T06:10:14.121Z,3.00
2023-03-30T06:12:43.348Z,3.33
2023-03-30T06:15:13.285Z,3.10
2023-03-30T06:17:46.899Z,3.12
2023-03-30T06:20:15.552Z,3.23
2023-03-30T06:22:45.615Z,4.57
2023-03-30T06:25:15.625Z,3.73
2023-03-30T06:27:45.025Z,3.17
2023-03-30T06:30:14.029Z,3.87
2023-03-30T06:32:43.448Z,3.27
2023-03-30T06:35:26.043Z,3.40
2023-03-30T06:37:55.815Z,2.87
2023-03-30T06:40:24.375Z,3.57
2023-03-30T06:42:53.136Z,3.47
2023-03-30T06:45:24.361Z,2.70
2023-03-30T06:47:53.467Z,3.15
2023-03-30T06:50:22.750Z,2.93
2023-03-30T06:52:52.757Z,2.60
2023-03-30T06:55:21.881Z,2.67
2023-03-30T06:57:50.411Z,2.93
2023-03-30T07:00:19.415Z,3.67
2023-03-30T07:02:49.529Z,3.37
2023-03-30T07:05:25.759Z,3.13
2023-03-30T07:07:56.918Z,4.45
2023-03-30T07:10:26.505Z,3.10
2023-03-30T07:12:56.715Z,3.20
2023-03-30T07:15:26.479Z,3.75
2023-03-30T07:17:55.657Z,2.72
2023-03-30T07:20:24.162Z,3.50
2023-03-30T07:23:03.526Z,3.43
2023-03-30T07:25:32.566Z,3.97
2023-03-30T07:28:03.291Z,2.85
2023-03-30T07:30:31.793Z,3.10
2023-03-30T07:33:01.991Z,3.23
2023-03-30T07:35:31.253Z,3.33
2023-03-30T07:38:03.819Z,3.17
2023-03-30T07:40:32.979Z,3.63
2023-03-30T07:43:02.474Z,3.13
2023-03-30T07:45:31.402Z,3.23
2023-03-30T07:48:00.081Z,3.37
2023-03-30T07:50:29.394Z,3.23
2023-03-30T07:52:58.149Z,2.83
2023-03-30T07:55:28.399Z,2.93
2023-03-30T07:57:59.283Z,3.35
2023-03-30T08:00:27.778Z,2.80
2023-03-30T08:03:01.996Z,3.37
2023-03-30T08:05:31.384Z,3.20
2023-03-30T08:08:01.309Z,2.97
2023-03-30T08:10:31.927Z,2.55
2023-03-30T08:13:01.127Z,2.12
2023-03-30T08:15:29.910Z,2.02
2023-03-30T08:17:58.852Z,2.20
2023-03-30T08:20:27.459Z,1.87
2023-03-30T08:22:56.004Z,1.97
2023-03-30T08:25:24.520Z,1.50
2023-03-30T08:27:53.047Z,1.40
2023-03-30T08:30:21.229Z,1.00
2023-03-30T08:32:49.772Z,1.57
2023-03-30T08:35:18.463Z,1.73
2023-03-30T08:37:47.269Z,1.50
2023-03-30T08:40:17.911Z,1.47
2023-03-30T08:42:56.549Z,1.43
2023-03-30T08:45:25.239Z,1.40
2023-03-30T08:47:54.688Z,1.77
2023-03-30T08:50:27.233Z,1.13
2023-03-30T08:52:56.398Z,1.87
2023-03-30T08:55:26.488Z,1.70
2023-03-30T08:58:05.520Z,2.00
2023-03-30T09:00:35.951Z,1.60
2023-03-30T09:03:22.227Z,2.00
2023-03-30T09:05:55.318Z,1.37
2023-03-30T09:08:26.415Z,1.50
2023-03-30T09:13:23.564Z,1.17
2023-03-30T09:15:53.883Z,1.52
2023-03-30T09:18:27.274Z,1.20
2023-03-30T09:20:57.844Z,1.30
2023-03-30T09:23:29.583Z,1.40
2023-03-30T09:26:06.469Z,1.63
2023-03-30T09:28:48.652Z,1.43
2023-03-30T09:31:21.330Z,1.20
2023-03-30T09:34:08.769Z,1.73
2023-03-30T09:36:43.851Z,1.20
2023-03-30T09:39:13.905Z,1.40
2023-03-30T09:42:01.060Z,1.30
2023-03-30T09:44:34.004Z,1.30
2023-03-30T09:47:02.882Z,1.40
2023-03-30T09:49:33.479Z,1.50
2023-03-30T09:52:06.158Z,2.13
2023-03-30T09:54:36.832Z,1.53
2023-03-30T09:57:05.784Z,1.45
2023-03-30T09:59:36.027Z,1.37
2023-03-30T10:02:12.855Z,0.80
2023-03-30T10:04:58.268Z,1.30
2023-03-30T10:07:29.034Z,1.50
2023-03-30T10:09:59.132Z,1.07
2023-03-30T10:12:28.593Z,1.60
2023-03-30T10:14:58.177Z,1.20
2023-03-30T10:17:27.172Z,1.80
2023-03-30T10:20:07.322Z,1.50
2023-03-30T10:22:29.002Z,1.50
2023-03-30T10:24:57.404Z,1.40
2023-03-30T10:27:29.066Z,1.20
2023-03-30T10:29:57.562Z,1.37
2023-03-30T10:32:27.679Z,1.57
2023-03-30T10:34:57.795Z,1.00
2023-03-30T10:37:37.207Z,1.75
2023-03-30T10:40:23.934Z,1.73
2023-03-30T10:42:55.564Z,1.43
2023-03-30T10:45:37.513Z,1.40
2023-03-30T10:48:23.216Z,1.63
2023-03-30T10:51:03.600Z,1.80
2023-03-30T10:53:37.068Z,1.80
2023-03-30T10:56:15.612Z,1.60
2023-03-30T10:58:45.719Z,1.80
2023-03-30T11:01:18.477Z,1.93
2023-03-30T11:03:48.960Z,1.70
2023-03-30T11:06:18.743Z,2.47
2023-03-30T11:08:50.687Z,2.17
2023-03-30T11:11:21.013Z,1.80
2023-03-30T11:13:50.813Z,1.80
2023-03-30T11:16:23.376Z,1.97
2023-03-30T11:18:56.474Z,1.90
2023-03-30T11:21:29.280Z,2.70
2023-03-30T11:23:59.913Z,1.97
2023-03-30T11:26:48.042Z,2.17
2023-03-30T11:29:34.686Z,1.87
2023-03-30T11:32:07.886Z,2.17
2023-03-30T11:34:44.131Z,1.63
2023-03-30T11:37:31.507Z,2.20
2023-03-30T11:40:17.368Z,1.65
2023-03-30T11:42:47.429Z,1.30
2023-03-30T11:45:23.157Z,2.10
2023-03-30T11:47:56.657Z,2.12
2023-03-30T11:50:29.935Z,2.10
2023-03-30T11:53:18.064Z,1.87
2023-03-30T11:56:03.391Z,2.13
2023-03-30T11:58:37.262Z,1.95
2023-03-30T12:01:08.048Z,2.07
2023-03-30T12:06:06.751Z,2.68
2023-03-30T12:08:45.977Z,1.90
2023-03-30T12:11:32.716Z,2.50
2023-03-30T12:14:01.710Z,2.13
2023-03-30T12:16:31.924Z,3.20
2023-03-30T12:19:11.306Z,2.40
2023-03-30T12:21:41.358Z,2.30
2023-03-30T12:24:13.916Z,2.57
2023-03-30T12:26:46.880Z,2.00
2023-03-30T12:32:02.306Z,2.47
2023-03-30T12:34:36.196Z,2.27
2023-03-30T12:37:06.834Z,2.45
2023-03-30T12:39:36.873Z,2.17
2023-03-30T12:42:10.604Z,2.00
2023-03-30T12:44:43.415Z,1.87
2023-03-30T12:47:13.808Z,1.87
2023-03-30T12:49:43.560Z,2.20
2023-03-30T12:52:25.635Z,2.23
2023-03-30T12:54:58.755Z,2.33
2023-03-30T12:57:47.039Z,3.10
2023-03-30T13:00:34.954Z,2.07
2023-03-30T13:03:21.465Z,2.70
2023-03-30T13:05:51.811Z,2.17
2023-03-30T13:08:21.832Z,2.43
2023-03-30T13:10:50.780Z,2.25
2023-03-30T13:13:23.825Z,2.20
2023-03-30T13:15:55.694Z,2.40
2023-03-30T13:18:25.354Z,2.00
2023-03-30T13:20:58.792Z,2.17
2023-03-30T13:23:28.827Z,2.00
2023-03-30T13:26:08.108Z,1.53
2023-03-30T13:28:38.264Z,1.50
2023-03-30T13:31:08.342Z,1.70
2023-03-30T13:33:38.668Z,1.82
2023-03-30T13:36:15.006Z,2.13
2023-03-30T13:38:54.331Z,1.30
2023-03-30T13:41:24.423Z,1.40
2023-03-30T13:43:57.455Z,2.08
2023-03-30T13:46:27.618Z,1.70
2023-03-30T13:49:14.034Z,1.13
2023-03-30T13:51:43.006Z,1.67
2023-03-30T13:54:15.552Z,1.70
2023-03-30T13:56:45.615Z,1.43
2023-03-30T13:59:15.891Z,1.10
2023-03-30T14:01:48.970Z,2.17
2023-03-30T14:04:17.856Z,1.80
2023-03-30T14:06:49.761Z,1.90
2023-03-30T14:09:19.814Z,1.60
2023-03-30T14:11:52.819Z,1.67
2023-03-30T14:14:23.494Z,1.40
2023-03-30T14:16:52.179Z,1.30
2023-03-30T14:19:22.708Z,1.70
2023-03-30T14:21:52.972Z,1.13
2023-03-30T14:24:22.742Z,1.30
2023-03-30T14:26:51.717Z,1.30
2023-03-30T14:29:31.254Z,1.20
2023-03-30T14:32:06.671Z,1.50
2023-03-30T14:34:32.861Z,0.85
2023-03-30T14:37:03.219Z,0.62
2023-03-30T14:39:32.935Z,0.97
2023-03-30T14:42:04.602Z,1.15
2023-03-30T14:44:34.669Z,1.17
2023-03-30T14:47:03.282Z,1.07
2023-03-30T14:49:32.693Z,1.50
2023-03-30T14:52:02.808Z,0.90
2023-03-30T14:54:31.482Z,1.07
2023-03-30T14:57:04.103Z,0.90
2023-03-30T14:59:34.146Z,1.20
2023-03-30T15:02:02.939Z,1.20
2023-03-30T15:04:33.338Z,1.07
2023-03-30T15:07:01.997Z,1.57
2023-03-30T15:09:32.030Z,1.40
2023-03-30T15:12:01.835Z,1.33
2023-03-30T15:14:32.157Z,1.15
2023-03-30T15:17:01.660Z,1.20
2023-03-30T15:19:31.942Z,1.80
2023-03-30T15:22:03.158Z,1.33
2023-03-30T15:24:32.918Z,1.53
2023-03-30T15:27:03.118Z,2.40
2023-03-30T15:29:32.289Z,1.37
2023-03-30T15:32:02.391Z,1.10
2023-03-30T15:34:30.978Z,1.57
2023-03-30T15:36:59.806Z,1.50
2023-03-30T15:39:31.749Z,1.47
2023-03-30T15:42:01.762Z,1.23
2023-03-30T15:44:32.162Z,1.45
2023-03-30T15:47:01.430Z,1.60
2023-03-30T15:49:44.045Z,1.17
2023-03-30T15:52:14.121Z,1.37
2023-03-30T15:54:47.478Z,1.00
2023-03-30T15:57:17.242Z,1.53
2023-03-30T15:59:47.454Z,0.97
2023-03-30T16:02:16.761Z,1.00
2023-03-30T16:04:45.575Z,1.40
2023-03-30T16:07:18.012Z,1.37
2023-03-30T16:09:46.704Z,1.20
2023-03-30T16:12:17.068Z,1.10
2023-03-30T16:14:45.492Z,1.03
2023-03-30T16:17:13.936Z,1.17
2023-03-30T16:19:42.886Z,1.43
2023-03-30T16:22:12.246Z,1.00
2023-03-30T16:24:42.012Z,0.90
2023-03-30T16:27:14.264Z,1.50
2023-03-30T16:29:42.841Z,1.13
2023-03-30T16:32:11.284Z,0.87
2023-03-30T16:34:42.930Z,1.13
2023-03-30T16:37:11.860Z,1.07
2023-03-30T16:39:40.697Z,1.30
2023-03-30T16:42:09.116Z,1.20
2023-03-30T16:44:37.590Z,1.27
2023-03-30T16:47:07.175Z,1.27
2023-03-30T16:49:35.680Z,1.20
2023-03-30T16:52:06.068Z,1.80
2023-03-30T16:54:34.863Z,1.37
2023-03-30T16:57:03.841Z,1.43
2023-03-30T16:59:33.446Z,1.30
2023-03-30T17:02:03.004Z,1.60
2023-03-30T17:04:31.792Z,1.15
2023-03-30T17:07:00.779Z,1.82
2023-03-30T17:09:29.849Z,1.70
2023-03-30T17:11:58.447Z,1.53
2023-03-30T17:14:27.579Z,1.53
2023-03-30T17:16:56.393Z,1.50
2023-03-30T17:19:27.893Z,1.40
2023-03-30T17:21:56.612Z,1.80
2023-03-30T17:24:25.360Z,2.17
2023-03-30T17:26:54.445Z,1.57
2023-03-30T17:29:22.746Z,1.57
2023-03-30T17:31:51.228Z,1.90
2023-03-30T17:34:19.725Z,2.00
2023-03-30T17:36:48.693Z,1.75
2023-03-30T17:39:17.040Z,2.27
2023-03-30T17:41:45.621Z,1.83
2023-03-30T17:44:14.090Z,1.87
2023-03-30T17:46:43.609Z,2.25
2023-03-30T17:49:13.842Z,1.77
2023-03-30T17:51:42.654Z,1.67
2023-03-30T17:54:11.044Z,2.37
2023-03-30T17:56:40.610Z,2.17
2023-03-30T17:59:11.982Z,1.80
2023-03-30T18:01:40.642Z,2.50
2023-03-30T18:04:09.214Z,2.06
2023-03-30T18:06:38.035Z,2.20
2023-03-30T18:09:07.454Z,2.13
2023-03-30T18:11:35.931Z,2.23
2023-03-30T18:14:05.442Z,2.20
2023-03-30T18:16:35.274Z,2.50
2023-03-30T18:19:04.820Z,2.98
2023-03-30T18:21:33.584Z,2.47
2023-03-30T18:24:03.754Z,1.92
2023-03-30T18:26:33.108Z,1.97
2023-03-30T18:29:02.051Z,2.10
2023-03-30T18:31:31.629Z,2.50
2023-03-30T18:34:00.107Z,1.83
2023-03-30T18:36:28.576Z,3.03
2023-03-30T18:38:57.368Z,3.25
2023-03-30T18:41:25.930Z,2.33
2023-03-30T18:43:54.733Z,2.60
2023-03-30T18:46:23.052Z,2.43
2023-03-30T18:48:51.704Z,2.70
2023-03-30T18:51:21.437Z,2.43
2023-03-30T18:53:49.959Z,1.37
2023-03-30T18:56:18.431Z,1.40
2023-03-30T18:58:46.913Z,0.80
2023-03-30T19:01:15.919Z,0.80
2023-03-30T19:03:45.804Z,1.40
2023-03-30T19:06:16.318Z,0.82
2023-03-30T19:08:44.494Z,1.03
2023-03-30T19:11:14.570Z,0.83
2023-03-30T19:13:42.762Z,0.83
2023-03-30T19:16:11.358Z,0.90
2023-03-30T19:18:39.999Z,0.63
2023-03-30T19:21:09.974Z,1.07
2023-03-30T19:23:38.500Z,1.13
2023-03-30T19:26:07.364Z,1.27
2023-03-30T19:28:36.201Z,0.70
2023-03-30T19:31:06.749Z,0.83
2023-03-30T19:33:35.479Z,0.95
2023-03-30T19:36:04.082Z,1.10
2023-03-30T19:38:32.705Z,1.20
2023-03-30T19:41:02.074Z,1.42
2023-03-30T19:43:31.246Z,1.25
2023-03-30T19:45:59.826Z,1.10
2023-03-30T19:48:28.556Z,1.30
2023-03-30T19:50:57.399Z,1.05
2023-03-30T19:53:26.165Z,1.70
2023-03-30T19:55:54.996Z,1.47
2023-03-30T19:58:23.222Z,1.73
2023-03-30T20:00:51.829Z,1.37
2023-03-30T20:03:20.869Z,1.00
2023-03-30T20:05:50.768Z,1.33
2023-03-30T20:08:24.213Z,1.23
2023-03-30T20:10:50.446Z,1.62
2023-03-30T20:13:20.584Z,1.40
2023-03-30T20:15:49.306Z,1.77
2023-03-30T20:18:18.296Z,1.53
2023-03-30T20:20:46.861Z,2.20
2023-03-30T20:23:15.574Z,1.70
2023-03-30T20:25:49.157Z,1.90
2023-03-30T20:28:17.797Z,1.53
2023-03-30T20:30:46.494Z,1.70
2023-03-30T20:33:14.951Z,1.33
2023-03-30T20:35:43.576Z,1.10
2023-03-30T20:38:14.202Z,1.20
2023-03-30T20:40:42.435Z,1.27
2023-03-30T20:43:10.858Z,1.40
2023-03-30T20:45:41.061Z,1.30
2023-03-30T20:48:10.965Z,1.33
2023-03-30T20:50:39.267Z,1.30
2023-03-30T20:53:07.674Z,1.60
2023-03-30T20:55:36.642Z,1.42
2023-03-30T20:58:05.397Z,1.33
2023-03-30T21:00:33.954Z,1.80
2023-03-30T21:03:02.820Z,1.60
2023-03-30T21:05:31.474Z,2.50
2023-03-30T21:08:00.270Z,2.60
2023-03-30T21:10:28.789Z,2.80
2023-03-30T21:12:57.585Z,2.72
2023-03-30T21:15:26.061Z,3.07
2023-03-30T21:17:54.971Z,2.72
2023-03-30T21:20:23.623Z,2.40
2023-03-30T21:22:52.097Z,3.20
2023-03-30T21:25:20.641Z,2.47
2023-03-30T21:27:49.392Z,2.35
2023-03-30T21:30:17.637Z,2.33
2023-03-30T21:32:46.402Z,2.40
2023-03-30T21:35:14.958Z,2.20
2023-03-30T21:37:43.490Z,2.07
2023-03-30T21:40:12.462Z,1.53
2023-03-30T21:42:41.055Z,1.30
2023-03-30T21:45:11.250Z,2.37
2023-03-30T21:47:40.022Z,1.27
2023-03-30T21:50:09.059Z,1.37
2023-03-30T21:52:37.556Z,1.23
2023-03-30T21:55:06.504Z,1.97
2023-03-30T21:57:35.073Z,0.90
2023-03-30T22:00:05.773Z,1.20
2023-03-30T22:02:36.291Z,1.03
2023-03-30T22:05:05.686Z,1.12
2023-03-30T22:07:35.943Z,1.00
2023-03-30T22:10:05.174Z,1.07
2023-03-30T22:12:33.684Z,0.97
2023-03-30T22:15:02.323Z,0.57
2023-03-30T22:17:32.566Z,0.87
2023-03-30T22:20:00.915Z,1.00
2023-03-30T22:22:29.428Z,0.73
2023-03-30T22:24:58.245Z,1.55
2023-03-30T22:27:27.504Z,0.88
2023-03-30T22:29:56.102Z,0.97
2023-03-30T22:32:24.675Z,1.17
2023-03-30T22:34:53.230Z,0.90
2023-03-30T22:37:21.448Z,0.83
2023-03-30T22:39:50.781Z,0.85
2023-03-30T22:42:19.052Z,1.13
2023-03-30T22:44:47.642Z,0.70
2023-03-30T22:47:16.261Z,1.33
2023-03-30T22:49:44.784Z,1.07
2023-03-30T22:52:13.657Z,0.78
2023-03-30T22:54:42.653Z,1.02
2023-03-30T22:57:11.209Z,1.00
2023-03-30T22:59:40.111Z,0.80
2023-03-30T23:02:08.943Z,0.85
2023-03-30T23:04:39.074Z,1.43
2023-03-30T23:07:08.120Z,0.97
2023-03-30T23:09:38.246Z,1.30
2023-03-30T23:12:06.852Z,1.07
2023-03-30T23:14:37.104Z,0.83
2023-03-30T23:17:05.399Z,1.13
2023-03-30T23:19:36.030Z,1.55
2023-03-30T23:22:05.382Z,1.00
2023-03-30T23:24:33.892Z,1.07
2023-03-30T23:27:02.759Z,1.25
2023-03-30T23:29:31.435Z,1.33
2023-03-30T23:31:59.968Z,0.83
2023-03-30T23:34:28.454Z,1.10
2023-03-30T23:36:58.613Z,0.87
2023-03-30T23:39:27.487Z,0.83
2023-03-30T23:41:56.950Z,0.78
2023-03-30T23:44:25.616Z,1.00
2023-03-30T23:46:54.224Z,1.03
2023-03-30T23:49:22.823Z,1.50
2023-03-30T23:51:51.677Z,1.23
2023-03-30T23:54:20.243Z,1.27
2023-03-30T23:56:56.440Z,1.50
2023-03-30T23:59:25.623Z,1.57
